createdAt,value
2023-02-15T10:23:53.207Z,99314.50
2023-02-15T10:26:23.756Z,99347.72
2023-02-15T10:28:53.060Z,99360.97
2023-02-15T10:31:49.990Z,99378.06
2023-02-15T10:34:20.729Z,99365.34
2023-02-15T10:37:15.339Z,99499.09
2023-02-15T10:39:54.750Z,99380.41
2023-02-15T10:42:34.375Z,99356.97
2023-02-15T10:45:25.061Z,99426.69
2023-02-15T10:48:17.262Z,99458.91
2023-02-15T10:50:56.773Z,99879.63
2023-02-15T10:53:55.171Z,99954.00
2023-02-15T10:56:34.108Z,99957.97
2023-02-15T10:59:19.528Z,99989.38
2023-02-15T11:02:05.092Z,99980.25
2023-02-15T11:04:40.732Z,100064.34
2023-02-15T11:07:16.293Z,100071.38
2023-02-15T11:09:54.364Z,100044.59
2023-02-15T11:12:25.105Z,100058.69
2023-02-15T11:15:29.994Z,100076.75
2023-02-15T11:18:04.088Z,100067.34
2023-02-15T11:20:37.828Z,100076.22
2023-02-15T11:23:16.352Z,100052.19
2023-02-15T11:25:48.434Z,100078.22
2023-02-15T11:28:28.623Z,100088.56
2023-02-15T11:30:57.959Z,100080.63
2023-02-15T11:33:30.614Z,100091.16
2023-02-15T11:36:04.493Z,100072.53
2023-02-15T11:38:33.750Z,100088.88
2023-02-15T11:41:08.700Z,100056.75
2023-02-15T11:43:44.505Z,100089.00
2023-02-15T11:46:13.725Z,100088.94
2023-02-15T11:48:40.584Z,100073.34
2023-02-15T11:51:09.811Z,100064.25
2023-02-15T11:53:38.753Z,100043.84
2023-02-15T11:56:07.075Z,100079.69
2023-02-15T11:58:45.632Z,100081.09
2023-02-15T12:01:28.548Z,100070.22
2023-02-15T12:03:59.405Z,100069.50
2023-02-15T12:06:30.894Z,100085.31
2023-02-15T12:09:10.480Z,100077.13
2023-02-15T12:11:39.836Z,100063.25
2023-02-15T12:14:09.917Z,100087.69
2023-02-15T12:16:56.194Z,100084.28
2023-02-15T12:19:31.667Z,100094.22
2023-02-15T12:22:01.775Z,100094.06
2023-02-15T12:24:38.968Z,100097.44
2023-02-15T12:27:18.624Z,100093.53
2023-02-15T12:30:03.190Z,100098.88
2023-02-15T12:32:34.363Z,100100.59
2023-02-15T12:35:17.970Z,100114.88
2023-02-15T12:37:56.289Z,100107.16
2023-02-15T12:40:28.080Z,100081.91
2023-02-15T12:42:55.875Z,100043.03
2023-02-15T12:45:25.243Z,100093.28
2023-02-15T12:48:19.445Z,100102.03
2023-02-15T12:51:07.989Z,100106.28
2023-02-15T12:53:37.481Z,100105.19
2023-02-15T12:56:10.033Z,100094.44
2023-02-15T12:58:38.703Z,100090.84
2023-02-15T13:01:25.657Z,100108.34
2023-02-15T13:04:01.642Z,100081.75
2023-02-15T13:06:31.198Z,100064.63
2023-02-15T13:09:14.895Z,100082.13
2023-02-15T13:11:44.531Z,100089.16
2023-02-15T13:14:18.913Z,100083.03
2023-02-15T13:16:48.087Z,100077.13
2023-02-15T13:19:19.305Z,100067.97
2023-02-15T13:21:48.850Z,100065.03
2023-02-15T13:24:49.780Z,100075.59
2023-02-15T13:27:23.509Z,100087.44
2023-02-15T13:30:00.520Z,100086.31
2023-02-15T13:32:32.239Z,100074.78
2023-02-15T13:35:02.130Z,100084.19
2023-02-15T13:37:59.310Z,100087.19
2023-02-15T13:40:42.845Z,100076.19
2023-02-15T13:43:37.558Z,100080.22
2023-02-15T13:46:12.545Z,100067.25
2023-02-15T13:48:53.018Z,100052.56
2023-02-15T13:51:28.558Z,100051.53
2023-02-15T13:54:07.980Z,100028.16
2023-02-15T13:57:03.514Z,99957.72
2023-02-15T13:59:57.317Z,99951.78
2023-02-15T14:02:44.888Z,99891.44
2023-02-15T14:05:29.066Z,99831.09
2023-02-15T14:08:16.603Z,99807.66
2023-02-15T14:10:51.982Z,99775.31
2023-02-15T14:13:40.037Z,99760.09
2023-02-15T14:16:22.562Z,99589.88
2023-02-15T14:19:18.135Z,99527.63
2023-02-15T14:22:08.897Z,99439.19
2023-02-15T14:24:45.519Z,99326.22
2023-02-15T14:27:28.967Z,99297.03
2023-02-15T14:30:02.914Z,99298.22
2023-02-15T14:32:42.146Z,99222.69
2023-02-15T14:35:18.219Z,99126.03
2023-02-15T14:37:56.040Z,99102.88
2023-02-15T14:41:03.115Z,99084.88
2023-02-15T14:43:57.029Z,99038.75
2023-02-15T14:46:37.157Z,99022.22
2023-02-15T14:49:16.314Z,99025.63
2023-02-15T14:51:48.797Z,99000.03
2023-02-15T14:54:18.956Z,98988.75
2023-02-15T14:56:46.648Z,99001.69
2023-02-15T14:59:13.014Z,99004.81
2023-02-15T15:01:41.057Z,98988.28
2023-02-15T15:04:12.854Z,98986.75
2023-02-15T15:06:42.165Z,98998.94
2023-02-15T15:09:28.208Z,98981.81
2023-02-15T15:12:14.053Z,99000.00
2023-02-15T15:14:44.935Z,98992.59
2023-02-15T15:17:13.545Z,98996.16
2023-02-15T15:19:51.870Z,99000.69
2023-02-15T15:22:21.318Z,99008.28
2023-02-15T15:24:51.989Z,99034.94
2023-02-15T15:27:37.909Z,99047.13
2023-02-15T15:30:19.682Z,99051.44
2023-02-15T15:32:55.093Z,99060.31
2023-02-15T15:35:33.406Z,99075.88
2023-02-15T15:38:21.136Z,99085.31
2023-02-15T15:40:56.294Z,99094.81
2023-02-15T15:43:47.482Z,99086.44
2023-02-15T15:46:32.302Z,99107.41
2023-02-15T15:49:18.701Z,99108.69
2023-02-15T15:51:49.470Z,99117.56
2023-02-15T15:54:24.737Z,99134.63
2023-02-15T15:56:58.332Z,99121.66
2023-02-15T15:59:26.259Z,99195.03
2023-02-15T16:01:53.390Z,99211.75
2023-02-15T16:04:30.791Z,99219.66
2023-02-15T16:07:17.439Z,99210.41
2023-02-15T16:10:01.118Z,99221.06
2023-02-15T16:12:35.795Z,99218.69
2023-02-15T16:15:15.471Z,99230.13
2023-02-15T16:17:45.840Z,99234.13
2023-02-15T16:20:19.658Z,99239.44
2023-02-15T16:22:54.020Z,99249.28
2023-02-15T16:25:54.671Z,99241.31
2023-02-15T16:28:21.431Z,99258.31
2023-02-15T16:31:05.354Z,99267.66
2023-02-15T16:33:39.020Z,99276.06
2023-02-15T16:36:08.842Z,99278.81
2023-02-15T16:38:44.297Z,99275.00
2023-02-15T16:41:13.806Z,99267.78
2023-02-15T16:43:43.495Z,99270.59
2023-02-15T16:46:21.673Z,99260.59
2023-02-15T16:48:52.695Z,99277.25
2023-02-15T16:51:28.263Z,99259.44
2023-02-15T16:53:56.806Z,99279.13
2023-02-15T16:56:27.575Z,99278.81
2023-02-15T16:58:56.240Z,99284.03
2023-02-15T17:01:27.156Z,99237.88
2023-02-15T17:04:23.112Z,99272.91
2023-02-15T17:07:04.224Z,99268.88
2023-02-15T17:09:31.129Z,99268.34
2023-02-15T17:11:59.026Z,99266.84
2023-02-15T17:14:33.093Z,99264.78
2023-02-15T17:17:15.320Z,99253.88
2023-02-15T17:19:54.583Z,99260.78
2023-02-15T17:22:24.506Z,99258.06
2023-02-15T17:24:59.691Z,99257.09
2023-02-15T17:27:28.820Z,99258.28
2023-02-15T17:30:01.873Z,99228.59
2023-02-15T17:32:31.518Z,99242.94
2023-02-15T17:34:59.300Z,99235.03
2023-02-15T17:37:27.632Z,99240.41
2023-02-15T17:39:54.818Z,99224.38
2023-02-15T17:42:21.213Z,99216.63
2023-02-15T17:44:47.616Z,99225.38
2023-02-15T17:47:18.054Z,99228.28
2023-02-15T17:49:45.227Z,99220.59
2023-02-15T17:52:14.866Z,99231.72
2023-02-15T17:55:00.711Z,99244.25
2023-02-15T17:57:28.770Z,99236.31
2023-02-15T18:00:13.885Z,99240.56
2023-02-15T18:02:59.276Z,99229.59
2023-02-15T18:05:44.592Z,99235.31
2023-02-15T18:08:34.830Z,99225.13
2023-02-15T18:11:20.729Z,99225.50
2023-02-15T18:13:47.504Z,99221.47
2023-02-15T18:16:24.501Z,99222.00
2023-02-15T18:18:52.602Z,99222.81
2023-02-15T18:21:20.684Z,99228.38
2023-02-15T18:23:47.180Z,99225.22
2023-02-15T18:26:20.518Z,99218.09
2023-02-15T18:28:47.510Z,99217.19
2023-02-15T18:31:14.971Z,99224.00
2023-02-15T18:33:54.970Z,99222.47
2023-02-15T18:36:29.150Z,99218.75
2023-02-15T18:38:56.450Z,99209.78
2023-02-15T18:41:23.718Z,99216.94
2023-02-15T18:43:51.481Z,99215.91
2023-02-15T18:46:18.339Z,99218.94
2023-02-15T18:48:46.901Z,99206.63
2023-02-15T18:51:21.681Z,99205.38
2023-02-15T18:53:51.391Z,99199.94
2023-02-15T18:56:21.274Z,99205.31
2023-02-15T18:58:49.101Z,99201.97
2023-02-15T19:01:20.952Z,99205.31
2023-02-15T19:03:59.110Z,99197.34
2023-02-15T19:06:25.843Z,99176.31
2023-02-15T19:08:53.216Z,99188.97
2023-02-15T19:11:23.183Z,99191.66
2023-02-15T19:13:52.279Z,99191.50
2023-02-15T19:16:27.702Z,99187.66
2023-02-15T19:18:58.879Z,99187.06
2023-02-15T19:21:27.914Z,99177.81
2023-02-15T19:24:02.565Z,99179.59
2023-02-15T19:26:44.606Z,99183.81
2023-02-15T19:29:17.520Z,99187.78
2023-02-15T19:31:44.087Z,99183.56
2023-02-15T19:34:15.943Z,99184.16
2023-02-15T19:36:44.645Z,99170.19
2023-02-15T19:39:27.819Z,99161.50
2023-02-15T19:41:54.367Z,99160.28
2023-02-15T19:44:21.219Z,99157.41
2023-02-15T19:46:47.675Z,99157.25
2023-02-15T19:49:14.125Z,99158.31
2023-02-15T19:51:41.335Z,99152.03
2023-02-15T19:54:18.942Z,99147.13
2023-02-15T19:56:45.369Z,99126.72
2023-02-15T19:59:27.508Z,99141.59
2023-02-15T20:01:54.943Z,99122.78
2023-02-15T20:04:21.812Z,99117.03
2023-02-15T20:06:49.885Z,99123.25
2023-02-15T20:09:26.543Z,99131.31
2023-02-15T20:11:53.453Z,99117.19
2023-02-15T20:14:20.683Z,99130.72
2023-02-15T20:16:47.283Z,99135.84
2023-02-15T20:19:14.561Z,99122.25
2023-02-15T20:21:46.113Z,99122.34
2023-02-15T20:24:17.601Z,99118.13
2023-02-15T20:26:44.446Z,99117.56
2023-02-15T20:29:18.251Z,99130.66
2023-02-15T20:31:45.147Z,99130.50
2023-02-15T20:34:12.752Z,99128.81
2023-02-15T20:36:40.106Z,99138.03
2023-02-15T20:39:20.438Z,99136.59
2023-02-15T20:41:47.799Z,99125.78
2023-02-15T20:44:22.703Z,99140.75
2023-02-15T20:46:51.476Z,99141.09
2023-02-15T20:49:18.426Z,99141.66
2023-02-15T20:51:46.998Z,99123.28
2023-02-15T20:54:19.571Z,99146.38
2023-02-15T20:56:47.401Z,99131.97
2023-02-15T20:59:32.205Z,99146.88
2023-02-15T21:02:02.270Z,99144.81
2023-02-15T21:04:31.440Z,99142.78
2023-02-15T21:06:59.278Z,99143.09
2023-02-15T21:09:25.702Z,99145.28
2023-02-15T21:11:54.072Z,99134.84
2023-02-15T21:14:23.503Z,99148.78
2023-02-15T21:16:51.089Z,99158.50
2023-02-15T21:19:24.039Z,99164.38
2023-02-15T21:21:52.830Z,99153.44
2023-02-15T21:24:23.387Z,99153.13
2023-02-15T21:26:50.391Z,99148.56
2023-02-15T21:29:22.599Z,99132.94
2023-02-15T21:31:49.476Z,99144.84
2023-02-15T21:34:22.492Z,99139.31
2023-02-15T21:36:50.845Z,99119.00
2023-02-15T21:39:27.032Z,99128.88
2023-02-15T21:42:14.533Z,99120.16
2023-02-15T21:44:59.319Z,99134.78
2023-02-15T21:47:49.491Z,99121.31
2023-02-15T21:50:37.841Z,99121.34
2023-02-15T21:53:06.555Z,99118.38
2023-02-15T21:55:33.291Z,99129.63
2023-02-15T21:58:03.474Z,99113.84
2023-02-15T22:00:30.825Z,99121.06
2023-02-15T22:02:59.716Z,99122.41
2023-02-15T22:05:32.732Z,99128.34
2023-02-15T22:07:59.739Z,99119.06
2023-02-15T22:10:36.090Z,99113.75
2023-02-15T22:13:09.255Z,99114.19
2023-02-15T22:15:37.214Z,99113.19
2023-02-15T22:18:05.005Z,99123.13
2023-02-15T22:20:32.150Z,99118.63
2023-02-15T22:22:58.725Z,99124.75
2023-02-15T22:28:16.518Z,99105.59
2023-02-15T22:30:45.556Z,99106.75
2023-02-15T22:33:23.662Z,99114.88
2023-02-15T22:35:50.258Z,99099.06
2023-02-15T22:38:16.849Z,99061.00
2023-02-15T22:40:44.119Z,99087.94
2023-02-15T22:43:21.850Z,99086.94
2023-02-15T22:45:48.917Z,99078.13
2023-02-15T22:48:21.207Z,99079.13
2023-02-15T22:50:47.956Z,99079.06
2023-02-15T22:53:14.383Z,99079.56
2023-02-15T22:55:41.309Z,99084.63
2023-02-15T22:58:16.071Z,99084.94
2023-02-15T23:00:43.142Z,99055.16
2023-02-15T23:03:19.299Z,99072.69
2023-02-15T23:05:47.007Z,99078.06
2023-02-15T23:08:14.222Z,99085.78
2023-02-15T23:10:43.195Z,99076.88
2023-02-15T23:13:26.766Z,99077.53
2023-02-15T23:15:56.844Z,99084.94
2023-02-15T23:18:26.173Z,99079.06
2023-02-15T23:21:22.909Z,99071.56
2023-02-15T23:23:53.267Z,99068.66
2023-02-15T23:26:28.687Z,99068.13
2023-02-15T23:28:58.346Z,99069.56
2023-02-15T23:31:40.404Z,99075.19
2023-02-15T23:34:18.925Z,99075.94
2023-02-15T23:36:45.571Z,99073.94
2023-02-15T23:39:39.899Z,99059.06
2023-02-15T23:42:26.671Z,99064.75
2023-02-15T23:44:53.393Z,99055.94
2023-02-15T23:47:52.769Z,99042.72
2023-02-15T23:50:25.734Z,99057.19
2023-02-15T23:52:54.100Z,99043.06
2023-02-15T23:55:22.220Z,99056.03
2023-02-15T23:57:49.560Z,99047.00
